Little Valley, Nevada Weather observations

Data are for 10 minute period ending at time listed.
 Day   Time    Ave.   Ave.  Ave.  Vector   Max.   Total    Solar   
  of    of     Air    Rel.  Wind   Wind    Wind  Precip.   Rad.    
Year   Day     Temp.  Hum.  Speed  Dir.    Gust                    
2014   (PST)    F      %     mph   deg.    mph     in.     W/m2    
------------------------------------------------------------------- 
 352   11:00   36.0    70    5.0   241     14.0   22.83     243  
 352   12:00   42.0    57    4.0   233     13.0   22.83     282  
 352   13:00   41.0    54    8.0   256     14.0   22.83     364  
 352   14:00   43.0    54    6.0   210     13.0   22.83     426  
 352   15:00   42.0    57    7.0   173     13.0   22.83     377  
 352   16:00   38.0    67    3.0   235     12.0   22.83     110  
 352   17:00   36.0    68    3.0   135     14.0   22.83      30  
 352   18:00   34.0    73    2.0   300     10.0   22.83       0  
 352   19:00   31.0    82    3.0   182      9.0   22.83       0  
 352   20:00   36.0    68    5.0   272     18.0   22.83       0  
 352   21:00   36.0    68    9.0   258     23.0   22.83       0  
 352   22:00   36.0    67    7.0   254     18.0   22.83       0  
 352   23:00   37.0    64   13.0   263     23.0   22.83       0  
 353    0:00   36.0    54    9.0   266     20.0   22.83       0  
 353    1:00   37.0    47   10.0   275     20.0   22.83       0  
 353    2:00   38.0    40   13.0   271     32.0   22.83       0  
 353    3:00   38.0    34   15.0   256     40.0   22.83       0  
 353    4:00   37.0    31    7.0   221     44.0   22.83       0  
 353    5:00   39.0    28   13.0   257     33.0   22.83       0  
 353    6:00   38.0    29   14.0   279     32.0   22.83       0  
 353    7:00   35.0    54   14.0   260     38.0   22.83       0  
 353    8:00   37.0    54   12.0   272     34.0   22.83       4  
 353    9:00   39.0    55   14.0   267     34.0   22.83      56  
 353   10:00   41.0    60   12.0   280     30.0   22.83     154  

Return to Little Valley, Nevada graphs page.


Western Regional Climate Center,wrcc@dri.edu